createdAt,value
2022-08-07T00:02:35.019Z,13.79
2022-08-07T00:04:04.367Z,13.76
2022-08-07T00:06:33.490Z,13.86
2022-08-07T00:09:16.885Z,13.87
2022-08-07T00:11:55.660Z,13.75
2022-08-07T00:14:30.207Z,13.70
2022-08-07T00:16:58.995Z,13.70
2022-08-07T00:19:25.885Z,13.70
2022-08-07T00:21:57.334Z,13.71
2022-08-07T00:24:29.261Z,13.60
2022-08-07T00:27:06.178Z,13.72
2022-08-07T00:29:36.921Z,13.60
2022-08-07T00:32:05.994Z,13.60
2022-08-07T00:34:35.435Z,13.57
2022-08-07T00:37:02.444Z,13.68
2022-08-07T00:39:31.941Z,13.62
2022-08-07T00:42:02.199Z,13.47
2022-08-07T00:44:33.360Z,13.48
2022-08-07T00:47:01.158Z,13.49
2022-08-07T00:50:19.311Z,13.57
2022-08-07T00:52:19.798Z,13.50
2022-08-07T00:54:46.972Z,13.61
2022-08-07T00:57:25.272Z,13.58
2022-08-07T00:59:53.167Z,13.64
2022-08-07T01:02:28.326Z,13.50
2022-08-07T01:04:58.313Z,13.42
2022-08-07T01:07:27.554Z,13.42
2022-08-07T01:10:07.126Z,13.37
2022-08-07T01:12:39.105Z,13.42
2022-08-07T01:15:06.701Z,13.43
2022-08-07T01:17:39.977Z,13.44
2022-08-07T01:20:17.145Z,13.47
2022-08-07T01:22:54.354Z,13.35
2022-08-07T01:25:53.669Z,13.31
2022-08-07T01:28:18.589Z,13.08
2022-08-07T01:30:45.317Z,13.25
2022-08-07T01:33:13.635Z,13.31
2022-08-07T01:35:53.234Z,13.49
2022-08-07T01:38:25.168Z,13.36
2022-08-07T01:40:54.898Z,13.41
2022-08-07T01:43:22.289Z,13.35
2022-08-07T01:45:54.597Z,13.32
2022-08-07T01:48:30.282Z,13.46
2022-08-07T01:51:24.474Z,13.51
2022-08-07T01:54:12.660Z,13.43
2022-08-07T01:57:03.791Z,13.23
2022-08-07T01:59:36.804Z,13.41
2022-08-07T02:03:11.271Z,13.37
2022-08-07T02:05:06.494Z,13.40
2022-08-07T02:07:50.165Z,13.34
2022-08-07T02:10:19.502Z,13.19
2022-08-07T02:12:50.039Z,13.34
2022-08-07T02:15:21.592Z,13.41
2022-08-07T02:17:51.825Z,13.37
2022-08-07T02:20:23.688Z,13.29
2022-08-07T02:22:55.119Z,13.14
2022-08-07T02:26:10.261Z,13.24
2022-08-07T02:28:11.298Z,13.35
2022-08-07T02:30:38.892Z,13.35
2022-08-07T02:33:09.511Z,13.19
2022-08-07T02:36:29.286Z,13.23
2022-08-07T02:38:31.847Z,13.16
2022-08-07T02:40:59.777Z,13.23
2022-08-07T02:43:28.310Z,13.28
2022-08-07T02:46:02.026Z,13.22
2022-08-07T02:48:30.296Z,13.14
2022-08-07T02:50:59.334Z,13.21
2022-08-07T02:53:30.064Z,13.01
2022-08-07T02:56:04.416Z,13.16
2022-08-07T02:58:34.146Z,13.22
2022-08-07T03:01:02.193Z,13.07
2022-08-07T03:03:50.083Z,13.07
2022-08-07T03:06:26.240Z,13.21
2022-08-07T03:09:02.128Z,13.08
2022-08-07T03:11:29.612Z,13.18
2022-08-07T03:14:01.783Z,13.09
2022-08-07T03:16:30.433Z,13.05
2022-08-07T03:18:58.293Z,13.18
2022-08-07T03:21:25.362Z,13.18
2022-08-07T03:24:19.469Z,13.11
2022-08-07T03:26:50.981Z,13.32
2022-08-07T03:29:20.808Z,13.29
2022-08-07T03:31:50.022Z,13.30
2022-08-07T03:34:18.548Z,13.31
2022-08-07T03:36:51.091Z,13.28
2022-08-07T03:39:18.090Z,13.27
2022-08-07T03:42:13.315Z,13.14
2022-08-07T03:44:40.207Z,13.10
2022-08-07T03:47:10.824Z,13.11
2022-08-07T03:49:42.253Z,13.25
2022-08-07T03:52:22.403Z,13.32
2022-08-07T03:54:58.973Z,13.42
2022-08-07T03:58:32.572Z,13.35
2022-08-07T04:00:21.094Z,13.50
2022-08-07T04:02:56.865Z,13.71
2022-08-07T04:05:28.736Z,13.72
2022-08-07T04:08:06.733Z,13.81
2022-08-07T04:10:33.435Z,13.59
2022-08-07T04:13:07.620Z,13.77
2022-08-07T04:15:43.459Z,13.84
2022-08-07T04:18:57.946Z,13.81
2022-08-07T04:21:02.628Z,13.99
2022-08-07T04:23:43.667Z,13.97
2022-08-07T04:26:16.948Z,14.04
2022-08-07T04:28:48.552Z,14.02
2022-08-07T04:31:20.196Z,14.16
2022-08-07T04:34:03.167Z,14.16
2022-08-07T04:36:29.727Z,14.21
2022-08-07T04:38:56.271Z,14.31
2022-08-07T04:41:24.914Z,14.35
2022-08-07T04:44:11.994Z,14.44
2022-08-07T04:46:59.629Z,14.42
2022-08-07T04:50:06.482Z,14.40
2022-08-07T04:52:51.905Z,14.47
2022-08-07T04:58:09.702Z,14.48
2022-08-07T05:00:07.856Z,14.35
2022-08-07T05:02:01.682Z,14.45
2022-08-07T05:04:47.070Z,14.46
2022-08-07T05:07:30.663Z,14.55
2022-08-07T05:10:49.662Z,14.47
2022-08-07T05:14:51.993Z,14.52
2022-08-07T05:16:24.288Z,14.58
2022-08-07T05:18:57.237Z,14.54
2022-08-07T05:22:00.444Z,14.58
2022-08-07T05:24:17.227Z,14.70
2022-08-07T05:26:47.192Z,14.61
2022-08-07T05:29:15.897Z,14.84
2022-08-07T05:31:47.576Z,14.92
2022-08-07T05:34:19.953Z,15.11
2022-08-07T05:36:54.025Z,15.32
2022-08-07T05:40:05.382Z,15.48
2022-08-07T05:42:11.939Z,15.54
2022-08-07T05:44:46.440Z,15.73
2022-08-07T05:47:18.592Z,15.84
2022-08-07T05:49:52.362Z,15.88
2022-08-07T05:52:20.053Z,16.11
2022-08-07T05:54:55.640Z,16.10
2022-08-07T05:57:26.575Z,16.42
2022-08-07T06:00:00.307Z,16.50
2022-08-07T06:02:31.488Z,16.59
2022-08-07T06:05:03.814Z,16.72
2022-08-07T06:08:13.405Z,16.76
2022-08-07T06:10:18.794Z,17.10
2022-08-07T06:12:47.229Z,17.22
2022-08-07T06:15:16.111Z,17.44
2022-08-07T06:17:53.583Z,17.65
2022-08-07T06:20:25.605Z,18.01
2022-08-07T06:23:25.055Z,18.12
2022-08-07T06:25:54.345Z,18.42
2022-08-07T06:28:27.739Z,18.49
2022-08-07T06:30:55.623Z,18.37
2022-08-07T06:33:22.931Z,18.68
2022-08-07T06:36:12.378Z,18.89
2022-08-07T06:38:36.448Z,18.91
2022-08-07T06:41:18.262Z,19.22
2022-08-07T06:44:10.877Z,19.38
2022-08-07T06:46:38.303Z,19.67
2022-08-07T06:49:07.200Z,19.96
2022-08-07T06:51:49.572Z,20.19
2022-08-07T06:55:34.450Z,20.05
2022-08-07T06:57:07.409Z,19.67
2022-08-07T07:00:15.098Z,19.90
2022-08-07T07:02:48.818Z,19.98
2022-08-07T07:05:12.598Z,19.88
2022-08-07T07:07:59.550Z,19.77
2022-08-07T07:10:31.156Z,19.45
2022-08-07T07:13:04.609Z,19.88
2022-08-07T07:15:37.633Z,20.09
2022-08-07T07:18:09.367Z,20.49
2022-08-07T07:20:38.493Z,20.46
2022-08-07T07:24:08.909Z,20.54
2022-08-07T07:26:32.444Z,20.83
2022-08-07T07:29:56.341Z,20.68
2022-08-07T07:31:56.111Z,20.97
2022-08-07T07:34:30.996Z,20.57
2022-08-07T07:37:14.951Z,21.11
2022-08-07T07:39:54.252Z,21.22
2022-08-07T07:42:25.785Z,21.45
2022-08-07T07:45:02.047Z,21.76
2022-08-07T07:47:29.569Z,21.64
2022-08-07T07:50:36.178Z,21.90
2022-08-07T07:52:46.957Z,22.18
2022-08-07T07:55:14.608Z,22.36
2022-08-07T07:57:51.560Z,22.32
2022-08-07T08:00:29.087Z,22.53
2022-08-07T08:03:17.013Z,22.33
2022-08-07T08:05:56.835Z,22.25
2022-08-07T08:08:34.446Z,22.44
2022-08-07T08:11:03.784Z,22.58
2022-08-07T08:13:36.772Z,22.61
2022-08-07T08:16:20.204Z,22.73
2022-08-07T08:18:54.623Z,22.52
2022-08-07T08:21:55.914Z,22.18
2022-08-07T08:24:57.382Z,22.29
2022-08-07T08:27:37.110Z,22.10
2022-08-07T08:30:14.215Z,22.10
2022-08-07T08:32:49.012Z,22.09
2022-08-07T08:35:20.499Z,22.62
2022-08-07T08:38:01.161Z,22.61
2022-08-07T08:40:37.854Z,22.81
2022-08-07T08:43:42.031Z,22.91
2022-08-07T08:46:28.386Z,22.81
2022-08-07T08:49:10.199Z,22.85
2022-08-07T08:54:36.836Z,22.40
2022-08-07T08:57:08.779Z,22.09
2022-08-07T08:59:51.301Z,21.89
2022-08-07T09:02:39.170Z,21.68
2022-08-07T09:05:10.049Z,22.27
2022-08-07T09:07:46.481Z,22.54
2022-08-07T09:10:45.185Z,21.77
2022-08-07T09:13:38.265Z,21.41
2022-08-07T09:16:30.038Z,21.46
2022-08-07T09:19:51.866Z,22.02
2022-08-07T09:24:27.987Z,22.91
2022-08-07T09:25:20.304Z,22.62
2022-08-07T09:28:00.585Z,22.27
2022-08-07T09:30:54.727Z,21.94
2022-08-07T09:33:52.376Z,21.77
2022-08-07T09:36:35.646Z,21.18
2022-08-07T09:39:55.455Z,21.31
2022-08-07T09:42:50.267Z,21.31
2022-08-07T09:47:50.136Z,21.37
2022-08-07T09:48:56.097Z,21.69
2022-08-07T09:52:09.661Z,22.47
2022-08-07T09:54:59.595Z,23.08
2022-08-07T09:57:46.548Z,23.58
2022-08-07T10:00:16.601Z,23.87
2022-08-07T10:04:05.253Z,24.00
2022-08-07T10:06:24.444Z,24.07
2022-08-07T10:09:08.664Z,23.20
2022-08-07T10:12:01.555Z,23.14
2022-08-07T10:14:47.527Z,22.52
2022-08-07T10:18:01.027Z,23.10
2022-08-07T10:20:50.335Z,23.79
2022-08-07T10:24:05.347Z,24.14
2022-08-07T10:26:38.543Z,24.20
2022-08-07T10:29:45.654Z,24.80
2022-08-07T10:32:53.517Z,24.50
2022-08-07T10:35:55.638Z,24.25
2022-08-07T10:38:36.044Z,23.48
2022-08-07T10:41:46.396Z,23.30
2022-08-07T10:44:16.575Z,22.90
2022-08-07T10:47:02.060Z,22.60
2022-08-07T10:49:49.635Z,22.54
2022-08-07T10:52:40.203Z,22.58
2022-08-07T10:55:26.771Z,22.46
2022-08-07T10:59:06.641Z,22.47
2022-08-07T11:02:05.422Z,22.35
2022-08-07T11:04:57.866Z,22.13
2022-08-07T11:07:58.853Z,22.31
2022-08-07T11:10:39.336Z,22.36
2022-08-07T11:14:45.968Z,22.46
2022-08-07T11:16:21.977Z,22.25
2022-08-07T11:19:11.968Z,22.80
2022-08-07T11:22:00.883Z,22.85
2022-08-07T11:24:56.102Z,22.62
2022-08-07T11:28:01.376Z,22.30
2022-08-07T11:30:41.357Z,22.40
2022-08-07T11:33:58.593Z,22.32
2022-08-07T11:36:44.202Z,22.00
2022-08-07T11:39:19.933Z,21.83
2022-08-07T11:42:23.428Z,21.27
2022-08-07T11:45:09.202Z,21.11
2022-08-07T11:47:58.995Z,21.19
2022-08-07T11:50:32.226Z,21.13
2022-08-07T11:53:35.257Z,21.20
2022-08-07T11:56:25.274Z,21.29
2022-08-07T12:00:08.330Z,21.24
2022-08-07T12:02:30.336Z,21.68
2022-08-07T12:05:15.398Z,21.69
2022-08-07T12:08:04.007Z,21.85
2022-08-07T12:10:41.992Z,21.70
2022-08-07T12:13:18.644Z,21.33
2022-08-07T12:16:09.300Z,21.55
2022-08-07T12:18:53.331Z,21.40
2022-08-07T12:21:56.030Z,21.74
2022-08-07T12:25:17.995Z,21.88
2022-08-07T12:28:04.041Z,22.54
2022-08-07T12:30:39.069Z,22.67
2022-08-07T12:33:28.427Z,22.40
2022-08-07T12:36:15.747Z,22.17
2022-08-07T12:38:47.495Z,21.55
2022-08-07T12:41:42.812Z,21.40
2022-08-07T12:44:17.374Z,21.20
2022-08-07T12:46:53.358Z,21.32
2022-08-07T12:49:48.511Z,21.08
2022-08-07T12:52:28.956Z,21.24
2022-08-07T12:56:03.558Z,21.43
2022-08-07T12:58:39.449Z,21.45
2022-08-07T13:01:08.003Z,21.89
2022-08-07T13:04:18.879Z,22.30
2022-08-07T13:08:12.931Z,22.35
2022-08-07T13:11:21.902Z,21.74
2022-08-07T13:14:03.224Z,21.53
2022-08-07T13:16:36.719Z,21.26
2022-08-07T13:19:50.764Z,21.11
2022-08-07T13:22:32.649Z,21.29
2022-08-07T13:25:23.993Z,21.19
2022-08-07T13:28:12.775Z,22.14
2022-08-07T13:30:48.863Z,22.29
2022-08-07T13:34:30.796Z,22.97
2022-08-07T13:36:27.628Z,23.45
2022-08-07T13:39:11.299Z,23.56
2022-08-07T13:41:47.449Z,23.64
2022-08-07T13:44:18.654Z,23.66
2022-08-07T13:46:56.787Z,23.04
2022-08-07T13:50:35.277Z,23.16
2022-08-07T13:52:26.437Z,23.34
2022-08-07T13:54:59.058Z,23.39
2022-08-07T13:57:37.609Z,23.55
2022-08-07T14:00:13.401Z,23.79
2022-08-07T14:02:55.873Z,23.39
2022-08-07T14:05:37.414Z,23.23
2022-08-07T14:08:07.235Z,22.88
2022-08-07T14:10:42.008Z,22.56
2022-08-07T14:13:16.251Z,22.42
2022-08-07T14:15:44.388Z,22.55
2022-08-07T14:18:29.827Z,22.53
2022-08-07T14:22:41.178Z,22.15
2022-08-07T14:24:03.771Z,22.12
2022-08-07T14:26:36.615Z,21.67
2022-08-07T14:30:04.819Z,21.61
2022-08-07T14:31:56.471Z,21.76
2022-08-07T14:34:29.594Z,21.90
2022-08-07T14:36:56.703Z,22.13
2022-08-07T14:40:17.751Z,22.28
2022-08-07T14:42:18.669Z,22.16
2022-08-07T14:44:53.613Z,21.81
2022-08-07T14:47:23.215Z,21.73
2022-08-07T14:49:57.099Z,21.80
2022-08-07T14:52:28.711Z,21.63
2022-08-07T14:54:58.548Z,21.80
2022-08-07T14:57:54.858Z,21.82
2022-08-07T15:00:20.605Z,21.37
2022-08-07T15:02:58.038Z,21.41
2022-08-07T15:05:26.915Z,21.51
2022-08-07T15:07:58.356Z,21.59
2022-08-07T15:10:29.642Z,21.53
2022-08-07T15:13:12.316Z,21.38
2022-08-07T15:15:43.027Z,21.49
2022-08-07T15:21:58.960Z,21.41
2022-08-07T15:25:16.042Z,21.57
2022-08-07T15:27:04.311Z,21.55
2022-08-07T15:30:09.799Z,21.28
2022-08-07T15:33:01.255Z,21.22
2022-08-07T15:38:51.268Z,21.14
2022-08-07T15:41:24.074Z,21.22
2022-08-07T15:44:07.796Z,21.00
2022-08-07T15:46:48.588Z,21.20
2022-08-07T15:52:10.720Z,21.24
2022-08-07T15:54:42.152Z,21.36
2022-08-07T15:57:27.893Z,21.09
2022-08-07T15:59:59.514Z,20.87
2022-08-07T16:02:38.986Z,20.75
2022-08-07T16:05:15.288Z,20.96
2022-08-07T16:08:33.521Z,20.82
2022-08-07T16:11:03.720Z,20.74
2022-08-07T16:13:57.757Z,20.86
2022-08-07T16:16:49.425Z,20.91
2022-08-07T16:19:58.792Z,20.83
2022-08-07T16:22:54.294Z,20.55
2022-08-07T16:25:54.513Z,20.46
2022-08-07T16:30:05.492Z,20.69
2022-08-07T16:31:51.784Z,20.73
2022-08-07T16:34:48.579Z,20.27
2022-08-07T16:38:05.922Z,20.52
2022-08-07T16:40:32.070Z,20.71
2022-08-07T16:43:07.900Z,20.63
2022-08-07T16:46:47.284Z,20.82
2022-08-07T16:50:20.741Z,20.68
2022-08-07T16:52:52.681Z,21.16
2022-08-07T16:55:47.949Z,20.92
2022-08-07T16:59:10.244Z,20.70
2022-08-07T17:01:35.951Z,20.49
2022-08-07T17:04:12.289Z,20.21
2022-08-07T17:07:02.993Z,20.20
2022-08-07T17:10:06.850Z,20.00
2022-08-07T17:12:53.848Z,20.19
2022-08-07T17:15:44.422Z,20.42
2022-08-07T17:18:25.951Z,20.45
2022-08-07T17:20:53.892Z,20.47
2022-08-07T17:23:32.645Z,20.50
2022-08-07T17:26:30.579Z,20.49
2022-08-07T17:30:15.609Z,20.62
2022-08-07T17:33:04.709Z,20.33
2022-08-07T17:36:20.592Z,20.06
2022-08-07T17:39:10.073Z,19.80
2022-08-07T17:42:04.863Z,19.69
2022-08-07T17:44:50.571Z,20.04
2022-08-07T17:47:54.137Z,19.92
2022-08-07T17:50:30.469Z,19.76
2022-08-07T17:53:01.080Z,19.87
2022-08-07T17:56:00.680Z,19.65
2022-08-07T17:58:53.091Z,19.50
2022-08-07T18:01:36.235Z,19.30
2022-08-07T18:04:24.696Z,19.38
2022-08-07T18:07:20.262Z,19.38
2022-08-07T18:10:06.648Z,19.27
2022-08-07T18:13:10.968Z,19.35
2022-08-07T18:16:05.135Z,19.61
2022-08-07T18:21:02.816Z,19.73
2022-08-07T18:21:53.547Z,19.23
2022-08-07T18:24:51.653Z,19.31
2022-08-07T18:27:39.111Z,19.16
2022-08-07T18:30:31.253Z,19.16
2022-08-07T18:33:15.908Z,19.14
2022-08-07T18:36:32.973Z,19.08
2022-08-07T18:40:07.210Z,18.70
2022-08-07T18:42:28.577Z,18.17
2022-08-07T18:45:44.620Z,18.22
2022-08-07T18:48:38.206Z,18.27
2022-08-07T18:52:35.204Z,18.20
2022-08-07T18:54:30.597Z,18.00
2022-08-07T18:57:31.031Z,17.89
2022-08-07T19:00:32.440Z,17.83
2022-08-07T19:03:37.797Z,17.89
2022-08-07T19:06:16.456Z,18.05
2022-08-07T19:09:09.354Z,17.93
2022-08-07T19:12:19.176Z,17.91
2022-08-07T19:16:03.054Z,17.93
2022-08-07T19:18:03.860Z,18.06
2022-08-07T19:21:09.242Z,17.80
2022-08-07T19:23:58.451Z,17.73
2022-08-07T19:26:55.563Z,17.67
2022-08-07T19:31:04.543Z,17.53
2022-08-07T19:32:42.354Z,17.63
2022-08-07T19:35:12.051Z,17.58
2022-08-07T19:37:56.533Z,17.56
2022-08-07T19:40:31.739Z,17.48
2022-08-07T19:43:02.380Z,17.48
2022-08-07T19:46:07.352Z,17.48
2022-08-07T19:48:24.166Z,17.70
2022-08-07T19:50:53.459Z,17.56
2022-08-07T19:54:34.119Z,17.36
2022-08-07T19:57:52.259Z,17.65
2022-08-07T19:58:57.181Z,17.70
2022-08-07T20:01:52.324Z,17.22
2022-08-07T20:04:12.530Z,17.33
2022-08-07T20:06:58.323Z,16.93
2022-08-07T20:10:36.398Z,17.12
2022-08-07T20:12:32.323Z,17.24
2022-08-07T20:15:05.166Z,17.08
2022-08-07T20:17:45.460Z,16.95
2022-08-07T20:20:29.694Z,16.74
2022-08-07T20:23:01.426Z,16.78
2022-08-07T20:25:50.927Z,17.04
2022-08-07T20:28:19.793Z,16.96
2022-08-07T20:30:47.084Z,16.73
2022-08-07T20:33:36.271Z,16.65
2022-08-07T20:36:06.306Z,16.56
2022-08-07T20:38:33.854Z,16.60
2022-08-07T20:41:03.728Z,16.48
2022-08-07T20:43:33.990Z,16.70
2022-08-07T20:46:26.963Z,16.43
2022-08-07T20:49:53.915Z,16.45
2022-08-07T20:51:40.442Z,16.29
2022-08-07T20:54:30.351Z,16.25
2022-08-07T20:57:04.560Z,16.23
2022-08-07T21:00:08.178Z,15.92
2022-08-07T21:02:40.634Z,16.14
2022-08-07T21:05:42.775Z,16.15
2022-08-07T21:08:17.993Z,16.16
2022-08-07T21:10:48.953Z,16.09
2022-08-07T21:13:24.626Z,16.08
2022-08-07T21:16:09.163Z,16.11
2022-08-07T21:18:41.292Z,16.03
2022-08-07T21:21:16.162Z,15.95
2022-08-07T21:24:01.624Z,16.01
2022-08-07T21:26:59.511Z,15.89
2022-08-07T21:29:37.326Z,15.81
2022-08-07T21:32:46.608Z,15.82
2022-08-07T21:35:10.814Z,15.69
2022-08-07T21:37:59.087Z,15.73
2022-08-07T21:40:46.262Z,15.60
2022-08-07T21:43:47.451Z,15.66
2022-08-07T21:46:31.705Z,15.79
2022-08-07T21:49:14.975Z,15.64
2022-08-07T21:51:54.946Z,15.46
2022-08-07T21:54:26.500Z,15.64
2022-08-07T21:56:59.956Z,15.66
2022-08-07T21:59:36.337Z,15.49
2022-08-07T22:02:31.696Z,15.40
2022-08-07T22:05:00.858Z,15.46
2022-08-07T22:07:58.546Z,15.26
2022-08-07T22:10:24.531Z,15.18
2022-08-07T22:12:54.168Z,15.16
2022-08-07T22:16:38.995Z,15.16
2022-08-07T22:18:16.838Z,15.28
2022-08-07T22:20:54.067Z,15.32
2022-08-07T22:23:24.572Z,15.42
2022-08-07T22:26:01.750Z,15.18
2022-08-07T22:28:40.449Z,15.06
2022-08-07T22:31:56.306Z,14.93
2022-08-07T22:34:33.235Z,14.88
2022-08-07T22:37:22.971Z,14.97
2022-08-07T22:40:01.661Z,15.07
2022-08-07T22:42:34.269Z,15.09
2022-08-07T22:45:04.087Z,15.04
2022-08-07T22:47:59.426Z,15.02
2022-08-07T22:50:33.514Z,15.04
2022-08-07T22:54:05.661Z,14.95
2022-08-07T22:56:23.944Z,14.91
2022-08-07T22:59:33.073Z,14.85
2022-08-07T23:02:18.207Z,14.83
2022-08-07T23:04:56.843Z,14.81
2022-08-07T23:07:57.083Z,14.80
2022-08-07T23:10:37.796Z,14.66
2022-08-07T23:13:19.525Z,14.64
2022-08-07T23:16:07.350Z,14.63
2022-08-07T23:19:38.787Z,14.41
2022-08-07T23:22:31.819Z,14.37
2022-08-07T23:25:16.553Z,14.49
2022-08-07T23:28:21.190Z,14.66
2022-08-07T23:31:11.474Z,14.73
2022-08-07T23:34:36.193Z,14.65
2022-08-07T23:38:01.486Z,14.51
2022-08-07T23:40:43.184Z,14.34
2022-08-07T23:43:40.541Z,14.27
2022-08-07T23:46:44.684Z,14.41
2022-08-07T23:49:49.809Z,14.33
2022-08-07T23:53:00.214Z,14.59
2022-08-07T23:55:53.197Z,14.42
2022-08-07T23:58:37.991Z,14.44
